Time;durP1;ratioP1;P1;durP2;ratioP2;P2;SDS_P1;SDS_P2;PMS_P1;PMS_P2;Temp;Humidity;BMP_temperature;BMP_pressure;BME280_temperature;BME280_humidity;BME280_pressure;Samples;Min_cycle;Max_cycle;Signal;HPM_P1;HPM_P2
2021/01/14 00:00:38;;;;;;;18.58;3.38;;;6.50;60.70;;;;;;4987639;28;20049;-60
2021/01/14 00:03:09;;;;;;;11.43;2.47;;;6.50;60.70;;;;;;4989054;28;20037;-60
2021/01/14 00:05:35;;;;;;;12.73;2.47;;;6.50;60.60;;;;;;4988938;28;20136;-60
2021/01/14 00:08:01;;;;;;;13.02;2.55;;;6.50;60.70;;;;;;4981381;28;20703;-60
2021/01/14 00:10:27;;;;;;;7.72;2.53;;;6.50;60.70;;;;;;4986755;28;20033;-60
2021/01/14 00:12:53;;;;;;;11.52;2.80;;;6.60;60.40;;;;;;4985685;28;20813;-60
2021/01/14 00:15:19;;;;;;;7.95;2.35;;;6.60;61.30;;;;;;4984207;28;20037;-60
2021/01/14 00:17:45;;;;;;;10.50;2.70;;;6.70;60.50;;;;;;4983538;28;20625;-61
2021/01/14 00:20:14;;;;;;;14.13;2.85;;;6.60;60.10;;;;;;4983936;28;20050;-60
2021/01/14 00:22:39;;;;;;;14.00;3.53;;;6.60;59.90;;;;;;4985628;28;20038;-60
2021/01/14 00:25:08;;;;;;;9.02;3.17;;;6.50;59.80;;;;;;4985003;28;20049;-60
2021/01/14 00:27:33;;;;;;;8.05;2.25;;;6.50;59.80;;;;;;4982818;28;20053;-61
2021/01/14 00:29:59;;;;;;;11.80;2.58;;;6.40;59.70;;;;;;4978736;28;20046;-61
2021/01/14 00:32:25;;;;;;;9.95;1.73;;;6.40;59.80;;;;;;4986385;28;20411;-61
2021/01/14 00:34:50;;;;;;;10.75;2.28;;;6.30;59.90;;;;;;4987643;28;20045;-60
2021/01/14 00:40:00;;;;;;;11.27;1.60;;;6.30;59.90;;;;;;4986559;28;20057;-60
2021/01/14 00:42:26;;;;;;;8.10;1.70;;;6.30;60.00;;;;;;4987663;28;20022;-60
2021/01/14 00:44:52;;;;;;;6.07;1.25;;;6.20;60.00;;;;;;4987416;28;20042;-61
2021/01/14 00:47:17;;;;;;;7.70;1.48;;;6.30;59.80;;;;;;4989446;28;20141;-60
2021/01/14 00:49:43;;;;;;;12.57;1.88;;;6.20;59.70;;;;;;4989497;28;20490;-60
2021/01/14 00:52:10;;;;;;;6.47;1.50;;;6.20;59.70;;;;;;4993585;28;20034;-60
2021/01/14 00:54:38;;;;;;;4.80;1.50;;;6.20;59.50;;;;;;4994567;28;20419;-60
2021/01/14 00:57:07;;;;;;;4.60;1.50;;;6.20;59.50;;;;;;4986932;28;20034;-60
2021/01/14 00:59:32;;;;;;;5.15;1.50;;;6.20;59.50;;;;;;4989578;28;20432;-60
2021/01/14 01:01:58;;;;;;;6.00;1.50;;;6.30;59.50;;;;;;4995513;28;20052;-60
2021/01/14 01:04:23;;;;;;;3.30;1.15;;;6.30;59.50;;;;;;4990069;28;20061;-60
2021/01/14 01:06:49;;;;;;;6.15;1.58;;;6.40;59.50;;;;;;4987645;28;20077;-60
2021/01/14 01:09:14;;;;;;;8.23;1.55;;;6.40;59.40;;;;;;4989143;28;20476;-60
2021/01/14 01:11:40;;;;;;;6.65;1.70;;;6.40;59.30;;;;;;4991454;28;20171;-60
2021/01/14 01:14:06;;;;;;;11.60;1.60;;;6.40;59.20;;;;;;4988425;28;20091;-60
2021/01/14 01:16:32;;;;;;;6.55;1.40;;;6.50;59.20;;;;;;4990917;28;20387;-60
2021/01/14 01:18:57;;;;;;;6.53;1.50;;;6.50;59.10;;;;;;4990816;28;20510;-60
2021/01/14 01:21:23;;;;;;;7.32;2.05;;;6.50;59.20;;;;;;4986673;28;20041;-61
2021/01/14 01:23:49;;;;;;;5.90;1.73;;;6.50;59.10;;;;;;4990578;28;20042;-60
2021/01/14 01:26:19;;;;;;;7.30;1.80;;;6.50;59.10;;;;;;4991345;28;20037;-60
2021/01/14 01:28:46;;;;;;;11.23;1.98;;;6.60;59.00;;;;;;4986042;28;20038;-60
2021/01/14 01:31:12;;;;;;;8.45;1.80;;;6.60;58.90;;;;;;4990805;28;20534;-60
2021/01/14 01:33:38;;;;;;;6.70;1.77;;;6.60;58.80;;;;;;4984741;28;20041;-60
2021/01/14 01:36:05;;;;;;;5.35;1.67;;;6.70;58.80;;;;;;4992211;28;20058;-60
2021/01/14 01:38:31;;;;;;;8.68;2.10;;;6.70;58.70;;;;;;4988990;28;20034;-61
2021/01/14 01:40:58;;;;;;;5.43;1.92;;;6.70;58.60;;;;;;4985877;28;20729;-60
2021/01/14 01:43:24;;;;;;;7.03;2.30;;;6.70;58.60;;;;;;4992909;28;20034;-61
2021/01/14 01:45:50;;;;;;;5.00;2.25;;;6.70;58.50;;;;;;4994311;28;20038;-60
2021/01/14 01:48:17;;;;;;;8.23;2.33;;;6.70;58.40;;;;;;4986679;28;20499;-61
2021/01/14 01:50:47;;;;;;;9.52;1.90;;;6.70;58.30;;;;;;4990920;28;20069;-60
2021/01/14 01:53:14;;;;;;;8.75;1.80;;;6.70;58.20;;;;;;4992347;28;20427;-60
2021/01/14 01:55:43;;;;;;;6.13;1.80;;;6.70;58.20;;;;;;4992332;28;20038;-61
2021/01/14 01:58:09;;;;;;;9.25;2.53;;;6.70;58.10;;;;;;4981820;28;20049;-60
2021/01/14 02:00:35;;;;;;;8.38;2.20;;;6.70;58.00;;;;;;4988271;28;20045;-60
2021/01/14 02:03:03;;;;;;;7.78;2.08;;;6.70;57.90;;;;;;4991048;28;20034;-60
2021/01/14 02:05:29;;;;;;;12.75;2.22;;;6.70;57.90;;;;;;4991406;28;20512;-63
2021/01/14 02:08:20;;;;;;;6.43;2.00;;;6.60;57.80;;;;;;4984664;28;20041;-61
2021/01/14 02:11:10;;;;;;;4.65;1.85;;;6.70;57.90;;;;;;4987645;28;20317;-60
2021/01/14 02:13:47;;;;;;;8.00;2.63;;;6.70;57.80;;;;;;4986636;28;20057;-60
2021/01/14 02:16:14;;;;;;;7.25;2.42;;;6.60;57.70;;;;;;4990508;28;20201;-60
2021/01/14 02:18:42;;;;;;;6.10;2.50;;;6.60;57.70;;;;;;4994342;28;20499;-60
2021/01/14 02:21:13;;;;;;;7.68;2.80;;;6.50;57.40;;;;;;4995045;28;20046;-60
2021/01/14 02:23:57;;;;;;;9.27;2.78;;;6.50;57.30;;;;;;4990797;28;20026;-61
2021/01/14 02:26:24;;;;;;;10.80;2.83;;;6.40;57.20;;;;;;4988032;28;20042;-60
2021/01/14 02:28:52;;;;;;;9.70;2.72;;;6.30;57.20;;;;;;4985654;28;20026;-60
2021/01/14 02:31:20;;;;;;;9.95;3.20;;;6.20;57.30;;;;;;4992321;28;20045;-61
2021/01/14 02:33:51;;;;;;;10.57;2.35;;;6.10;57.30;;;;;;4989868;28;20038;-60
2021/01/14 02:36:18;;;;;;;8.93;3.20;;;6.10;57.40;;;;;;4986086;28;20049;-60
2021/01/14 02:38:44;;;;;;;7.07;2.75;;;6.00;57.50;;;;;;4982441;28;20049;-61
2021/01/14 02:41:10;;;;;;;8.55;2.67;;;6.00;57.50;;;;;;4989249;28;20031;-61
2021/01/14 02:43:36;;;;;;;7.82;2.58;;;5.90;57.60;;;;;;4990552;28;20113;-60
2021/01/14 02:46:02;;;;;;;11.70;3.38;;;5.90;57.60;;;;;;4988248;28;20038;-60
2021/01/14 02:48:39;;;;;;;9.13;2.60;;;5.90;57.60;;;;;;4987481;28;20488;-59
2021/01/14 02:51:08;;;;;;;8.60;3.00;;;5.80;57.70;;;;;;4992063;28;20038;-60
2021/01/14 02:53:34;;;;;;;6.90;3.13;;;5.80;57.70;;;;;;4991563;28;20046;-60
2021/01/14 02:56:01;;;;;;;9.45;2.90;;;5.80;57.80;;;;;;4988367;28;20488;-60
2021/01/14 02:58:28;;;;;;;7.95;2.58;;;5.70;57.80;;;;;;4984597;28;20445;-60
2021/01/14 03:00:57;;;;;;;7.68;2.90;;;5.70;57.80;;;;;;4991103;28;20482;-60
2021/01/14 03:03:23;;;;;;;10.40;3.22;;;5.60;57.80;;;;;;4984519;28;20445;-60
2021/01/14 03:05:51;;;;;;;11.68;3.47;;;5.60;57.90;;;;;;4990717;28;20045;-61
2021/01/14 03:08:17;;;;;;;14.40;3.20;;;5.60;58.00;;;;;;4987498;28;20042;-61
2021/01/14 03:10:45;;;;;;;8.75;3.35;;;5.60;58.00;;;;;;4987380;28;20073;-60
2021/01/14 03:13:11;;;;;;;10.73;3.80;;;5.50;58.00;;;;;;4988656;28;20488;-60
2021/01/14 03:15:37;;;;;;;9.45;3.92;;;5.50;58.00;;;;;;4992388;28;20034;-60
2021/01/14 03:18:03;;;;;;;12.05;3.35;;;5.50;58.00;;;;;;4984699;28;20034;-60
2021/01/14 03:20:29;;;;;;;10.05;3.20;;;5.50;58.10;;;;;;4982605;28;20148;-60
2021/01/14 03:22:54;;;;;;;8.73;3.03;;;5.40;58.00;;;;;;4987385;28;20083;-62
2021/01/14 03:25:20;;;;;;;10.63;3.42;;;5.40;58.10;;;;;;4988669;28;20042;-60
2021/01/14 03:27:46;;;;;;;7.80;2.88;;;5.40;57.60;;;;;;4986321;28;20444;-60
2021/01/14 03:30:14;;;;;;;10.55;3.45;;;5.40;58.30;;;;;;4988391;28;20035;-60
2021/01/14 03:32:40;;;;;;;9.27;3.15;;;5.40;58.40;;;;;;4986215;28;20038;-60
2021/01/14 03:35:07;;;;;;;10.18;3.60;;;5.40;58.60;;;;;;4990421;28;20077;-60
2021/01/14 03:37:40;;;;;;;9.05;3.28;;;5.40;58.80;;;;;;4987610;28;20221;-60
2021/01/14 03:40:07;;;;;;;12.68;3.30;;;5.50;59.10;;;;;;4994478;28;20070;-60
2021/01/14 03:42:32;;;;;;;11.15;3.60;;;5.50;59.20;;;;;;4991318;28;20042;-60
2021/01/14 03:44:58;;;;;;;8.32;3.42;;;5.60;59.30;;;;;;4988769;28;20081;-60
2021/01/14 03:47:24;;;;;;;10.35;3.58;;;5.70;59.30;;;;;;4991645;28;20040;-60
2021/01/14 03:49:50;;;;;;;10.05;3.90;;;5.80;59.30;;;;;;4991440;28;20030;-60
2021/01/14 03:52:16;;;;;;;10.85;4.25;;;5.90;59.30;;;;;;4994434;28;20034;-60
2021/01/14 03:54:47;;;;;;;14.90;4.28;;;5.90;59.20;;;;;;4989152;28;20446;-60
2021/01/14 03:57:13;;;;;;;10.75;4.13;;;6.00;59.20;;;;;;4993169;28;20378;-60
2021/01/14 03:59:39;;;;;;;18.15;5.50;;;6.00;59.10;;;;;;4985757;28;20506;-60
2021/01/14 04:02:08;;;;;;;10.38;4.13;;;6.10;59.00;;;;;;4987117;28;20061;-60
2021/01/14 04:04:43;;;;;;;11.65;4.70;;;6.10;58.90;;;;;;4989264;28;20467;-60
2021/01/14 04:07:13;;;;;;;13.68;4.18;;;6.10;58.90;;;;;;4993226;28;21004;-61
2021/01/14 04:09:40;;;;;;;7.72;3.85;;;6.20;58.90;;;;;;4983786;28;20038;-61
2021/01/14 04:12:06;;;;;;;16.35;4.57;;;6.20;58.90;;;;;;4987644;28;20042;-60
2021/01/14 04:14:32;;;;;;;11.48;3.45;;;6.20;58.80;;;;;;4986698;28;20232;-60
2021/01/14 04:16:59;;;;;;;9.75;4.75;;;6.20;58.90;;;;;;4988317;28;20042;-60
2021/01/14 04:19:25;;;;;;;11.23;4.15;;;6.30;58.90;;;;;;4987388;28;20060;-60
2021/01/14 04:21:50;;;;;;;10.45;4.38;;;6.30;58.80;;;;;;4984546;28;20038;-61
2021/01/14 04:24:16;;;;;;;12.82;4.43;;;6.30;58.80;;;;;;4990473;28;20779;-60
2021/01/14 04:26:42;;;;;;;12.88;4.57;;;6.30;58.70;;;;;;4994554;28;20384;-60
2021/01/14 04:29:09;;;;;;;10.20;4.75;;;6.40;58.80;;;;;;4988546;28;20038;-60
2021/01/14 04:31:35;;;;;;;10.80;4.07;;;6.40;58.80;;;;;;4982979;28;20156;-61
2021/01/14 04:34:02;;;;;;;14.90;4.65;;;6.40;58.80;;;;;;4991290;28;20044;-61
2021/01/14 04:36:28;;;;;;;14.63;4.63;;;6.40;58.80;;;;;;4991852;28;20413;-61
2021/01/14 04:38:53;;;;;;;10.10;5.07;;;6.50;58.80;;;;;;4990062;28;20069;-60
2021/01/14 04:41:20;;;;;;;15.27;5.32;;;6.50;58.80;;;;;;4994166;28;20080;-60
2021/01/14 04:43:47;;;;;;;16.42;5.75;;;6.50;58.90;;;;;;4993138;28;20038;-60
2021/01/14 04:46:14;;;;;;;14.15;4.57;;;6.50;58.90;;;;;;4989667;28;20410;-60
2021/01/14 04:48:41;;;;;;;19.42;5.72;;;6.50;59.00;;;;;;4983721;28;20041;-60
2021/01/14 04:51:09;;;;;;;17.02;5.45;;;6.50;59.10;;;;;;4992453;28;20038;-60
2021/01/14 04:53:37;;;;;;;17.23;6.03;;;6.50;59.10;;;;;;4995086;28;20030;-60
2021/01/14 04:56:06;;;;;;;17.23;6.10;;;6.50;59.20;;;;;;4991300;28;20031;-61
2021/01/14 04:58:33;;;;;;;16.17;5.20;;;6.50;59.20;;;;;;4988342;28;23564;-61
2021/01/14 05:00:59;;;;;;;15.15;5.78;;;6.60;59.30;;;;;;4989853;28;20066;-60
2021/01/14 05:03:27;;;;;;;18.15;6.28;;;6.60;59.30;;;;;;4989604;28;20646;-60
2021/01/14 05:05:54;;;;;;;12.43;5.00;;;6.60;59.30;;;;;;4988267;28;20038;-61
2021/01/14 05:08:31;;;;;;;11.75;5.40;;;6.60;59.30;;;;;;4986110;28;20044;-61
2021/01/14 05:10:57;;;;;;;15.65;5.15;;;6.60;59.30;;;;;;4988764;28;20187;-60
2021/01/14 05:13:24;;;;;;;12.95;5.78;;;6.60;59.30;;;;;;4988686;28;20412;-60
2021/01/14 05:15:49;;;;;;;17.15;6.05;;;6.70;59.30;;;;;;4985860;28;20042;-60
2021/01/14 05:18:15;;;;;;;18.60;5.40;;;6.60;59.30;;;;;;4984109;28;20060;-60
2021/01/14 05:20:41;;;;;;;18.38;5.97;;;6.60;59.20;;;;;;4983216;28;20034;-60
2021/01/14 05:23:08;;;;;;;17.45;5.78;;;6.70;59.30;;;;;;4981173;28;20259;-60
2021/01/14 05:25:34;;;;;;;17.92;6.75;;;6.70;59.30;;;;;;4987686;28;20053;-60
2021/01/14 05:28:11;;;;;;;11.20;5.60;;;6.70;59.40;;;;;;4983934;28;20066;-60
2021/01/14 05:30:38;;;;;;;15.07;5.50;;;6.70;59.40;;;;;;4988893;28;20210;-61
2021/01/14 05:33:10;;;;;;;13.65;6.20;;;6.70;59.40;;;;;;4988469;28;20543;-60
2021/01/14 05:35:35;;;;;;;12.18;5.15;;;6.60;59.40;;;;;;4979944;28;20046;-60
2021/01/14 05:38:03;;;;;;;13.95;6.40;;;6.70;59.50;;;;;;4983084;28;20194;-60
2021/01/14 05:40:30;;;;;;;15.57;5.88;;;6.70;59.50;;;;;;4988674;28;20498;-61
2021/01/14 05:43:04;;;;;;;16.42;5.68;;;6.70;59.50;;;;;;4990316;28;20507;-65
2021/01/14 05:45:30;;;;;;;16.05;6.10;;;6.70;59.50;;;;;;4992231;28;20414;-62
2021/01/14 05:48:13;;;;;;;11.75;5.88;;;6.70;59.50;;;;;;4987664;28;20487;-61
2021/01/14 05:50:46;;;;;;;18.13;5.55;;;6.70;59.50;;;;;;4985767;28;20080;-61
2021/01/14 05:53:16;;;;;;;11.95;5.70;;;6.70;59.50;;;;;;4990681;28;20522;-60
2021/01/14 05:55:50;;;;;;;22.40;5.70;;;6.70;59.50;;;;;;4980842;28;20034;-61
2021/01/14 05:58:18;;;;;;;13.00;6.28;;;6.70;59.50;;;;;;4987373;28;20034;-61
2021/01/14 06:00:45;;;;;;;14.55;6.22;;;6.70;59.50;;;;;;4990836;28;20066;-60
2021/01/14 06:03:25;;;;;;;16.20;6.13;;;6.70;59.60;;;;;;4986376;28;20109;-60
2021/01/14 06:05:52;;;;;;;18.08;6.32;;;6.70;59.60;;;;;;4986660;28;20039;-60
2021/01/14 06:08:23;;;;;;;20.45;5.95;;;6.70;59.60;;;;;;4990041;28;20053;-60
2021/01/14 06:10:49;;;;;;;13.07;6.40;;;6.70;59.60;;;;;;4983323;28;20034;-60
2021/01/14 06:13:14;;;;;;;19.40;6.15;;;6.70;59.60;;;;;;4991902;28;20041;-60
2021/01/14 06:15:40;;;;;;;19.38;5.50;;;6.70;59.60;;;;;;4989393;28;20408;-64
2021/01/14 06:18:12;;;;;;;11.85;5.43;;;6.70;59.60;;;;;;4992042;28;20046;-65
2021/01/14 06:20:53;;;;;;;14.45;6.28;;;6.70;59.60;;;;;;4987474;28;20454;-65
2021/01/14 06:23:22;;;;;;;17.20;5.88;;;6.70;59.60;;;;;;4989819;28;20034;-61
2021/01/14 06:25:52;;;;;;;14.68;6.20;;;6.70;59.60;;;;;;4994905;28;20034;-61
2021/01/14 06:28:21;;;;;;;17.13;6.28;;;6.70;59.70;;;;;;4989017;28;20033;-60
2021/01/14 06:31:03;;;;;;;16.35;6.28;;;6.70;59.60;;;;;;4989512;28;20046;-60
2021/01/14 06:33:30;;;;;;;15.75;5.95;;;6.70;59.60;;;;;;4993218;28;20032;-60
2021/01/14 06:36:09;;;;;;;19.33;6.35;;;6.70;59.60;;;;;;4991415;28;20038;-61
2021/01/14 06:38:46;;;;;;;14.10;5.15;;;6.70;59.70;;;;;;4987204;28;20034;-61
2021/01/14 06:41:17;;;;;;;14.77;5.60;;;6.70;59.70;;;;;;4985824;28;20045;-60
2021/01/14 06:43:44;;;;;;;18.10;5.28;;;6.70;59.70;;;;;;4989936;28;20045;-60
2021/01/14 06:46:34;;;;;;;15.23;5.72;;;6.70;59.60;;;;;;4987625;28;20030;-60
2021/01/14 06:49:03;;;;;;;15.30;5.38;;;6.70;59.60;;;;;;4984227;28;20069;-60
2021/01/14 06:51:49;;;;;;;11.93;5.70;;;6.70;59.60;;;;;;4995603;28;20026;-60
2021/01/14 06:54:17;;;;;;;14.68;6.50;;;6.70;59.60;;;;;;4982165;28;20133;-61
2021/01/14 06:57:14;;;;;;;14.38;6.18;;;6.70;59.60;;;;;;4978119;28;20069;-60
2021/01/14 06:59:41;;;;;;;12.80;5.93;;;6.70;59.50;;;;;;4982645;28;20042;-60
2021/01/14 07:02:06;;;;;;;13.52;6.30;;;6.70;59.50;;;;;;4985117;28;20037;-60
2021/01/14 07:04:44;;;;;;;14.52;5.50;;;6.70;59.50;;;;;;4984943;28;20407;-60
2021/01/14 07:07:25;;;;;;;13.23;5.95;;;6.70;59.50;;;;;;4984042;28;20034;-60
2021/01/14 07:10:06;;;;;;;8.80;5.40;;;6.70;59.50;;;;;;4981540;28;20078;-60
2021/01/14 07:12:34;;;;;;;13.43;6.25;;;6.70;59.50;;;;;;4984371;28;20034;-60
2021/01/14 07:15:13;;;;;;;14.98;5.68;;;6.70;59.50;;;;;;4980782;28;20038;-60
2021/01/14 07:17:41;;;;;;;13.25;5.85;;;6.70;59.40;;;;;;4986599;28;20065;-60
2021/01/14 07:20:12;;;;;;;11.02;5.75;;;6.70;59.40;;;;;;4981383;28;20123;-60
2021/01/14 07:22:42;;;;;;;10.43;5.90;;;6.70;59.40;;;;;;4978503;28;20038;-60
2021/01/14 07:25:09;;;;;;;14.77;6.35;;;6.70;59.30;;;;;;4984419;28;20410;-61
2021/01/14 07:27:36;;;;;;;13.20;6.18;;;6.70;59.40;;;;;;4977292;28;20498;-61
2021/01/14 07:30:04;;;;;;;10.52;5.25;;;6.70;59.30;;;;;;4986300;28;20042;-61
2021/01/14 07:32:52;;;;;;;14.48;6.10;;;6.70;59.30;;;;;;4978510;28;20045;-61
2021/01/14 07:35:44;;;;;;;11.48;5.30;;;6.70;59.30;;;;;;4982608;28;20042;-60
2021/01/14 07:38:17;;;;;;;16.77;5.70;;;6.70;59.30;;;;;;4986500;28;20040;-60
2021/01/14 07:40:44;;;;;;;13.50;6.07;;;6.70;59.30;;;;;;4978735;28;20045;-61
2021/01/14 07:43:14;;;;;;;13.90;6.43;;;6.70;59.30;;;;;;4980135;28;20064;-61
2021/01/14 07:45:41;;;;;;;15.35;6.70;;;6.70;59.20;;;;;;4978997;28;20044;-60
2021/01/14 07:48:20;;;;;;;16.73;5.72;;;6.70;59.20;;;;;;4981677;28;20115;-65
2021/01/14 07:50:57;;;;;;;12.57;5.15;;;6.70;59.20;;;;;;4975574;28;20443;-61
2021/01/14 07:53:24;;;;;;;11.48;6.05;;;6.70;59.20;;;;;;4977358;28;20038;-60
2021/01/14 07:55:50;;;;;;;10.20;6.10;;;6.70;59.20;;;;;;4975551;28;20046;-60
2021/01/14 07:58:20;;;;;;;14.20;6.28;;;6.70;59.20;;;;;;4978339;28;20530;-60
2021/01/14 08:01:09;;;;;;;13.68;6.63;;;6.70;59.20;;;;;;4981494;28;20132;-60
2021/01/14 08:03:39;;;;;;;16.88;6.28;;;6.70;59.20;;;;;;4979995;28;20038;-60
2021/01/14 08:06:44;;;;;;;14.68;6.38;;;6.70;59.20;;;;;;4982731;28;20042;-61
2021/01/14 08:09:11;;;;;;;15.57;6.00;;;6.70;59.20;;;;;;4978781;28;22091;-60
2021/01/14 08:11:58;;;;;;;13.80;5.85;;;6.70;59.20;;;;;;4981471;28;20124;-60
2021/01/14 08:14:38;;;;;;;15.15;5.75;;;6.70;59.20;;;;;;4983968;28;20136;-61
2021/01/14 08:17:29;;;;;;;14.63;6.07;;;6.70;59.20;;;;;;4985225;28;20117;-61
2021/01/14 08:19:55;;;;;;;20.02;5.80;;;6.60;59.20;;;;;;4984560;28;20049;-60
2021/01/14 08:22:21;;;;;;;14.15;6.28;;;6.70;59.30;;;;;;4979396;28;20137;-61
2021/01/14 08:24:59;;;;;;;11.50;5.97;;;6.70;59.30;;;;;;4986936;28;20034;-60
2021/01/14 08:27:30;;;;;;;13.80;6.10;;;6.70;59.30;;;;;;4984433;28;20061;-60
2021/01/14 08:30:06;;;;;;;18.70;6.80;;;6.70;59.40;;;;;;4984741;28;20046;-62
2021/01/14 08:32:35;;;;;;;15.88;6.13;;;6.70;59.30;;;;;;4989573;28;20042;-61
2021/01/14 08:35:08;;;;;;;15.75;6.13;;;6.70;59.30;;;;;;4985750;28;20038;-60
2021/01/14 08:37:35;;;;;;;12.88;5.78;;;6.70;59.30;;;;;;4986035;28;20065;-60
2021/01/14 08:40:05;;;;;;;13.32;6.00;;;6.80;59.30;;;;;;4980605;28;20050;-61
2021/01/14 08:42:33;;;;;;;12.80;6.22;;;6.80;59.30;;;;;;4983901;28;20039;-61
2021/01/14 08:45:06;;;;;;;17.45;6.65;;;6.80;59.30;;;;;;4984741;28;20497;-61
2021/01/14 08:48:07;;;;;;;13.68;6.35;;;6.80;59.20;;;;;;4986439;28;20034;-60
2021/01/14 08:50:45;;;;;;;14.00;6.22;;;6.80;59.30;;;;;;4984558;28;20031;-61
2021/01/14 08:53:32;;;;;;;12.80;6.05;;;6.80;59.20;;;;;;4987603;28;20038;-61
2021/01/14 08:56:04;;;;;;;13.18;6.05;;;6.80;59.20;;;;;;4989240;28;20061;-60
2021/01/14 08:58:44;;;;;;;14.93;5.97;;;6.80;59.20;;;;;;4985296;28;20041;-60
2021/01/14 09:01:19;;;;;;;14.68;6.50;;;6.80;59.10;;;;;;4982467;28;20034;-60
2021/01/14 09:03:47;;;;;;;15.23;6.00;;;6.80;59.10;;;;;;4983701;28;20129;-61
2021/01/14 09:06:13;;;;;;;11.18;6.22;;;6.90;59.20;;;;;;4981639;28;20161;-61
2021/01/14 09:08:39;;;;;;;11.20;5.53;;;6.90;59.20;;;;;;4981140;28;20062;-61
2021/01/14 09:11:05;;;;;;;13.15;6.70;;;6.90;59.20;;;;;;4987033;28;20113;-60
2021/01/14 09:13:32;;;;;;;12.93;6.15;;;6.90;59.20;;;;;;4986651;28;20030;-61
2021/01/14 09:16:05;;;;;;;12.68;6.18;;;6.90;59.10;;;;;;4991256;28;20065;-61
2021/01/14 09:18:35;;;;;;;16.00;5.88;;;7.00;59.20;;;;;;4989280;28;20497;-61
2021/01/14 09:21:02;;;;;;;13.82;6.13;;;7.00;59.10;;;;;;4987814;28;20088;-61
2021/01/14 09:23:35;;;;;;;12.02;6.72;;;7.10;59.20;;;;;;4983118;28;20034;-61
2021/01/14 09:26:13;;;;;;;17.27;6.35;;;7.10;59.00;;;;;;4986459;28;20042;-60
2021/01/14 09:28:39;;;;;;;13.27;6.28;;;7.10;59.00;;;;;;4979528;28;20030;-61
2021/01/14 09:31:08;;;;;;;12.02;6.32;;;7.20;59.00;;;;;;4985696;28;20065;-60
2021/01/14 09:33:36;;;;;;;14.18;6.10;;;7.20;58.90;;;;;;4986424;28;20124;-60
2021/01/14 09:36:04;;;;;;;11.75;6.10;;;7.30;59.00;;;;;;4985385;28;20618;-60
2021/01/14 09:38:35;;;;;;;11.27;6.20;;;7.30;58.90;;;;;;4984791;28;20099;-60
2021/01/14 09:41:02;;;;;;;16.00;6.65;;;7.30;58.80;;;;;;4993174;28;20042;-61
2021/01/14 09:43:32;;;;;;;12.57;6.05;;;7.40;58.80;;;;;;4994529;28;20110;-61
2021/01/14 09:45:58;;;;;;;9.65;6.00;;;7.40;58.70;;;;;;4987916;28;20026;-60
2021/01/14 09:48:26;;;;;;;15.85;6.65;;;7.40;58.70;;;;;;4987091;28;20866;-60
2021/01/14 09:50:51;;;;;;;17.10;6.45;;;7.50;58.70;;;;;;4982599;28;20089;-60
2021/01/14 09:53:17;;;;;;;13.65;6.85;;;7.50;58.60;;;;;;4981970;28;20030;-61
2021/01/14 09:55:43;;;;;;;15.70;6.60;;;7.60;58.50;;;;;;4985966;28;20065;-60
2021/01/14 09:58:18;;;;;;;10.68;6.13;;;7.60;58.40;;;;;;4988619;28;20536;-61
2021/01/14 10:00:50;;;;;;;12.30;6.20;;;7.60;58.40;;;;;;4989807;28;20435;-61
2021/01/14 10:03:17;;;;;;;12.57;6.22;;;7.70;58.30;;;;;;4988530;28;20100;-60
2021/01/14 10:05:45;;;;;;;12.98;6.05;;;7.70;58.20;;;;;;4984360;28;20038;-60
2021/01/14 10:08:18;;;;;;;11.48;6.05;;;7.70;58.10;;;;;;4984695;28;20499;-60
2021/01/14 10:10:44;;;;;;;11.45;6.40;;;7.70;58.10;;;;;;4987721;28;20049;-61
2021/01/14 10:13:14;;;;;;;12.35;6.45;;;7.70;58.20;;;;;;4982873;28;21038;-61
2021/01/14 10:15:43;;;;;;;10.23;6.20;;;7.70;58.10;;;;;;4981873;28;20096;-61
2021/01/14 10:18:25;;;;;;;12.30;6.43;;;7.80;58.00;;;;;;4980158;28;20148;-60
2021/01/14 10:21:01;;;;;;;18.20;6.93;;;7.70;57.90;;;;;;4982419;28;20041;-60
2021/01/14 10:23:28;;;;;;;10.20;6.15;;;7.80;57.90;;;;;;4986892;28;20034;-60
2021/01/14 10:25:55;;;;;;;14.65;6.93;;;7.70;57.70;;;;;;4980163;28;20453;-60
2021/01/14 10:28:24;;;;;;;12.95;6.50;;;7.70;57.60;;;;;;4983320;28;20083;-61
2021/01/14 10:30:50;;;;;;;14.05;6.80;;;7.60;57.60;;;;;;4984870;28;20033;-60
2021/01/14 10:33:17;;;;;;;13.15;6.00;;;7.60;57.60;;;;;;4984142;28;20050;-60
2021/01/14 10:35:43;;;;;;;11.52;6.55;;;7.60;57.70;;;;;;4990220;28;20038;-61
2021/01/14 10:38:12;;;;;;;13.05;6.80;;;7.60;57.70;;;;;;4982267;28;20038;-60
2021/01/14 10:40:48;;;;;;;14.43;7.35;;;7.60;57.80;;;;;;4984287;28;20074;-60
2021/01/14 10:43:14;;;;;;;12.15;6.90;;;7.60;57.70;;;;;;4987586;28;20073;-60
2021/01/14 10:45:42;;;;;;;14.27;7.13;;;7.60;57.70;;;;;;4983904;28;20050;-60
2021/01/14 10:48:12;;;;;;;12.07;6.95;;;7.60;57.60;;;;;;4981162;28;20048;-60
2021/01/14 10:50:52;;;;;;;14.88;7.10;;;7.60;57.60;;;;;;4983268;28;20520;-60
2021/01/14 10:53:37;;;;;;;14.13;6.78;;;7.70;57.70;;;;;;4983909;28;20049;-60
2021/01/14 10:56:10;;;;;;;13.43;7.18;;;7.70;57.80;;;;;;4986814;28;20045;-60
2021/01/14 10:58:37;;;;;;;14.50;7.53;;;7.80;57.80;;;;;;4982170;28;20566;-60
2021/01/14 11:01:03;;;;;;;11.20;6.80;;;;;;;;;;4987358;28;20042;-60
2021/01/14 11:03:30;;;;;;;13.00;6.82;;;;;;;;;;4978232;28;20577;-60
2021/01/14 11:06:01;;;;;;;18.65;7.20;;;;;;;;;;4989303;28;20044;-60
2021/01/14 11:08:44;;;;;;;10.98;6.10;;;;;;;;;;4980751;28;20096;-60
2021/01/14 11:11:14;;;;;;;9.55;6.65;;;;;;;;;;4987543;28;20108;-61
2021/01/14 11:13:52;;;;;;;15.45;7.18;;;;;;;;;;4986541;28;20585;-60
2021/01/14 11:16:20;;;;;;;12.05;7.03;;;;;;;;;;4986947;28;20034;-61
2021/01/14 11:18:47;;;;;;;11.25;6.60;;;;;;;;;;4979757;28;20740;-61
2021/01/14 11:21:14;;;;;;;13.95;6.60;;;;;;;;;;4984207;28;20030;-61
2021/01/14 11:23:40;;;;;;;11.23;6.05;;;;;;;;;;4975883;28;20092;-61
2021/01/14 11:26:07;;;;;;;15.95;7.38;;;;;;;;;;4977045;28;20434;-61
2021/01/14 11:28:38;;;;;;;12.27;6.88;;;;;;;;;;4975688;28;20081;-61
2021/01/14 11:31:04;;;;;;;16.13;7.30;;;;;;;;;;4974911;28;20436;-61
2021/01/14 11:33:30;;;;;;;11.07;6.45;;;;;;;;;;4976528;28;21410;-61
2021/01/14 11:35:56;;;;;;;14.93;6.78;;;;;;;;;;4980429;28;20329;-61
2021/01/14 11:38:22;;;;;;;14.15;6.97;;;;;;;;;;4974911;28;20042;-60
2021/01/14 11:40:49;;;;;;;12.45;6.75;;;;;;;;;;4974684;28;20083;-61
2021/01/14 11:43:15;;;;;;;11.95;7.07;;;;;;;;;;4980910;28;20112;-61
2021/01/14 11:45:41;;;;;;;12.18;6.90;;;;;;;;;;4977742;28;20061;-61
2021/01/14 11:48:07;;;;;;;10.57;7.10;;;;;;;;;;4978341;28;20209;-61
2021/01/14 11:50:33;;;;;;;16.50;7.53;;;;;;;;;;4982852;28;20818;-61
2021/01/14 11:52:59;;;;;;;13.38;7.00;;;;;;;;;;4979615;28;20038;-61
2021/01/14 11:55:25;;;;;;;15.70;7.32;;;;;;;;;;4981276;28;20042;-61
2021/01/14 11:57:51;;;;;;;17.52;7.68;;;;;;;;;;4975135;28;20134;-61
2021/01/14 12:00:18;;;;;;;12.70;6.95;;;;;;;;;;4979646;28;20042;-61
2021/01/14 12:02:45;;;;;;;20.52;7.25;;;;;;;;;;4978055;28;20386;-61
2021/01/14 12:05:11;;;;;;;20.65;7.10;;;;;;;;;;4977699;28;20051;-61
2021/01/14 12:07:37;;;;;;;14.25;7.50;;;;;;;;;;4973713;28;20814;-61
2021/01/14 12:10:03;;;;;;;19.45;7.07;;;;;;;;;;4974355;28;20120;-61
2021/01/14 12:12:29;;;;;;;13.30;7.20;;;;;;;;;;4975686;28;20344;-61
2021/01/14 12:14:57;;;;;;;14.85;7.30;;;;;;;;;;4978258;28;20099;-61
2021/01/14 12:17:23;;;;;;;17.42;7.25;;;;;;;;;;4978247;28;20817;-61
2021/01/14 12:19:49;;;;;;;18.48;7.85;;;;;;;;;;4980869;28;20046;-61
2021/01/14 12:22:15;;;;;;;20.30;7.13;;;;;;;;;;4978042;28;20092;-60
2021/01/14 12:24:41;;;;;;;17.48;7.13;;;;;;;;;;4975074;28;20395;-61
2021/01/14 12:27:07;;;;;;;17.40;7.43;;;;;;;;;;4977100;28;20492;-61
2021/01/14 12:29:33;;;;;;;17.38;7.22;;;7.80;57.70;;;;;;4971443;28;20583;-61
2021/01/14 12:32:01;;;;;;;14.85;6.63;;;9.10;55.00;;;;;;4972859;28;20046;-61
2021/01/14 12:34:27;;;;;;;14.55;6.65;;;9.10;55.20;;;;;;4976456;28;20038;-61
2021/01/14 12:36:54;;;;;;;13.88;6.97;;;;;;;;;;4973079;28;20049;-61
2021/01/14 12:39:20;;;;;;;14.60;6.28;;;;;;;;;;4986416;28;20133;-62
2021/01/14 12:41:49;;;;;;;12.50;6.50;;;;;;;;;;4972689;28;20398;-61
2021/01/14 12:44:14;;;;;;;12.85;6.25;;;;;;;;;;4981641;28;20403;-61
2021/01/14 12:46:45;;;;;;;15.52;6.22;;;9.10;55.30;;;;;;4981896;28;20042;-61
2021/01/14 12:49:12;;;;;;;9.60;5.78;;;10.00;53.80;;;;;;4982315;28;20453;-61
2021/01/14 12:51:39;;;;;;;13.80;5.43;;;10.00;53.60;;;;;;4981885;28;20049;-61
2021/01/14 12:54:06;;;;;;;13.82;7.40;;;9.80;53.50;;;;;;4982608;28;20077;-61
2021/01/14 12:56:31;;;;;;;19.58;9.15;;;9.80;53.90;;;;;;4978761;28;20056;-62
2021/01/14 12:58:57;;;;;;;16.88;6.07;;;9.80;54.00;;;;;;4984887;28;20526;-62
2021/01/14 13:01:37;;;;;;;12.63;5.78;;;;;;;;;;4975572;28;20034;-62
2021/01/14 13:04:03;;;;;;;14.18;6.38;;;;;;;;;;4977073;28;20790;-61
2021/01/14 13:06:30;;;;;;;15.45;6.78;;;;;;;;;;4981923;28;20039;-61
2021/01/14 13:08:57;;;;;;;13.20;6.57;;;;;;;;;;4975250;28;20122;-62
2021/01/14 13:11:25;;;;;;;13.45;6.65;;;;;;;;;;4963127;28;20048;-62
2021/01/14 13:13:52;;;;;;;11.98;5.75;;;;;;;;;;4971302;28;20053;-61
2021/01/14 13:16:18;;;;;;;12.63;6.97;;;;;;;;;;4980797;28;20870;-61